Terminal Aerodrome Forecast
Issued by NWS Jackson, KY

Home | Current Version | Previous Version | Text Only | Print | Product List | Glossary On
Versions: 1 2 3 4 5 6 7 8 9 10 11 12 13 14 15 16 17
000
FTUS43 KJKL 220336 AAA
TAFJKL
TAF AMD
KJKL 220336Z 2204/2224 30003KT 4SM BR SCT025 BKN045
     FM220500 30003KT 6SM BR SCT035
     FM220900 00000KT 3SM BR SCT010
     FM221300 VRB04KT P6SM SKC=

USA.gov is the U.S. government's official web portal to all federal, state and local government web resources and services.